sensor_id;sensor_type;location;lat;lon;timestamp;P1;durP1;ratioP1;P2;durP2;ratioP2
16391;SDS011;8305;-33.882;151.134;2023-01-28T00:02:14;16.75;;;11.00;;
16391;SDS011;8305;-33.882;151.134;2023-01-28T00:04:48;17.55;;;11.48;;
16391;SDS011;8305;-33.882;151.134;2023-01-28T00:07:19;27.30;;;14.15;;
16391;SDS011;8305;-33.882;151.134;2023-01-28T00:09:50;16.20;;;10.57;;
16391;SDS011;8305;-33.882;151.134;2023-01-28T00:12:21;18.27;;;11.30;;
16391;SDS011;8305;-33.882;151.134;2023-01-28T00:14:54;16.27;;;11.13;;
16391;SDS011;8305;-33.882;151.134;2023-01-28T00:17:25;14.80;;;10.75;;
16391;SDS011;8305;-33.882;151.134;2023-01-28T00:19:56;16.90;;;10.95;;
16391;SDS011;8305;-33.882;151.134;2023-01-28T00:22:27;16.85;;;10.70;;
16391;SDS011;8305;-33.882;151.134;2023-01-28T00:24:59;15.98;;;11.05;;
16391;SDS011;8305;-33.882;151.134;2023-01-28T00:27:30;14.65;;;10.07;;
16391;SDS011;8305;-33.882;151.134;2023-01-28T00:30:03;15.55;;;10.23;;
16391;SDS011;8305;-33.882;151.134;2023-01-28T00:32:34;16.05;;;10.50;;
16391;SDS011;8305;-33.882;151.134;2023-01-28T00:35:06;15.07;;;10.40;;
16391;SDS011;8305;-33.882;151.134;2023-01-28T00:37:37;17.40;;;10.48;;
16391;SDS011;8305;-33.882;151.134;2023-01-28T00:40:08;16.05;;;10.95;;
16391;SDS011;8305;-33.882;151.134;2023-01-28T00:42:40;46.08;;;38.22;;
16391;SDS011;8305;-33.882;151.134;2023-01-28T00:45:12;16.40;;;12.23;;
16391;SDS011;8305;-33.882;151.134;2023-01-28T00:47:43;16.00;;;10.93;;
16391;SDS011;8305;-33.882;151.134;2023-01-28T00:50:14;16.33;;;11.15;;
16391;SDS011;8305;-33.882;151.134;2023-01-28T00:52:46;16.20;;;10.68;;
16391;SDS011;8305;-33.882;151.134;2023-01-28T00:55:17;34.28;;;15.93;;
16391;SDS011;8305;-33.882;151.134;2023-01-28T00:57:48;12.63;;;9.80;;
16391;SDS011;8305;-33.882;151.134;2023-01-28T01:00:21;14.00;;;10.15;;
16391;SDS011;8305;-33.882;151.134;2023-01-28T01:02:52;13.43;;;9.77;;
16391;SDS011;8305;-33.882;151.134;2023-01-28T01:05:23;15.48;;;10.32;;
16391;SDS011;8305;-33.882;151.134;2023-01-28T01:07:54;16.27;;;10.63;;
16391;SDS011;8305;-33.882;151.134;2023-01-28T01:10:35;14.05;;;10.45;;
16391;SDS011;8305;-33.882;151.134;2023-01-28T01:13:07;12.48;;;10.05;;
16391;SDS011;8305;-33.882;151.134;2023-01-28T01:15:40;18.40;;;10.98;;
16391;SDS011;8305;-33.882;151.134;2023-01-28T01:18:11;14.38;;;10.32;;
16391;SDS011;8305;-33.882;151.134;2023-01-28T01:20:42;14.75;;;10.38;;
16391;SDS011;8305;-33.882;151.134;2023-01-28T01:23:15;13.73;;;10.27;;
16391;SDS011;8305;-33.882;151.134;2023-01-28T01:25:46;15.65;;;11.23;;
16391;SDS011;8305;-33.882;151.134;2023-01-28T01:28:17;15.80;;;10.30;;
16391;SDS011;8305;-33.882;151.134;2023-01-28T01:30:55;12.45;;;9.98;;
16391;SDS011;8305;-33.882;151.134;2023-01-28T01:33:28;15.35;;;10.50;;
16391;SDS011;8305;-33.882;151.134;2023-01-28T01:36:00;14.40;;;10.30;;
16391;SDS011;8305;-33.882;151.134;2023-01-28T01:38:31;14.60;;;10.55;;
16391;SDS011;8305;-33.882;151.134;2023-01-28T01:41:03;15.10;;;10.05;;
16391;SDS011;8305;-33.882;151.134;2023-01-28T01:43:47;16.35;;;11.05;;
16391;SDS011;8305;-33.882;151.134;2023-01-28T01:46:21;16.25;;;12.32;;
16391;SDS011;8305;-33.882;151.134;2023-01-28T01:48:59;15.52;;;10.80;;
16391;SDS011;8305;-33.882;151.134;2023-01-28T01:51:36;14.20;;;10.50;;
16391;SDS011;8305;-33.882;151.134;2023-01-28T01:54:07;15.70;;;10.00;;
16391;SDS011;8305;-33.882;151.134;2023-01-28T01:56:39;16.48;;;10.30;;
16391;SDS011;8305;-33.882;151.134;2023-01-28T01:59:13;14.55;;;10.05;;
16391;SDS011;8305;-33.882;151.134;2023-01-28T02:01:50;14.63;;;10.32;;
16391;SDS011;8305;-33.882;151.134;2023-01-28T02:04:22;15.32;;;9.95;;
16391;SDS011;8305;-33.882;151.134;2023-01-28T02:06:57;12.43;;;8.52;;
16391;SDS011;8305;-33.882;151.134;2023-01-28T02:09:30;13.45;;;9.00;;
16391;SDS011;8305;-33.882;151.134;2023-01-28T02:12:04;13.70;;;8.90;;
16391;SDS011;8305;-33.882;151.134;2023-01-28T02:14:40;13.70;;;7.85;;
16391;SDS011;8305;-33.882;151.134;2023-01-28T02:17:15;11.88;;;8.40;;
16391;SDS011;8305;-33.882;151.134;2023-01-28T02:19:47;10.10;;;7.07;;
16391;SDS011;8305;-33.882;151.134;2023-01-28T02:25:28;9.65;;;6.57;;
16391;SDS011;8305;-33.882;151.134;2023-01-28T02:28:15;9.80;;;6.07;;
16391;SDS011;8305;-33.882;151.134;2023-01-28T02:31:03;8.80;;;5.40;;
16391;SDS011;8305;-33.882;151.134;2023-01-28T02:33:39;8.43;;;5.50;;
16391;SDS011;8305;-33.882;151.134;2023-01-28T02:36:16;7.72;;;4.93;;
16391;SDS011;8305;-33.882;151.134;2023-01-28T02:38:51;8.95;;;4.28;;
16391;SDS011;8305;-33.882;151.134;2023-01-28T02:41:26;8.85;;;4.38;;
16391;SDS011;8305;-33.882;151.134;2023-01-28T02:44:03;8.15;;;3.83;;
16391;SDS011;8305;-33.882;151.134;2023-01-28T02:46:34;9.75;;;3.97;;
16391;SDS011;8305;-33.882;151.134;2023-01-28T02:49:22;6.85;;;3.08;;
16391;SDS011;8305;-33.882;151.134;2023-01-28T02:52:16;6.13;;;3.10;;
16391;SDS011;8305;-33.882;151.134;2023-01-28T02:55:18;8.70;;;2.80;;
16391;SDS011;8305;-33.882;151.134;2023-01-28T02:58:00;5.43;;;2.55;;
16391;SDS011;8305;-33.882;151.134;2023-01-28T03:00:43;5.10;;;2.15;;
16391;SDS011;8305;-33.882;151.134;2023-01-28T03:03:21;6.85;;;2.20;;
16391;SDS011;8305;-33.882;151.134;2023-01-28T03:05:57;7.00;;;2.17;;
16391;SDS011;8305;-33.882;151.134;2023-01-28T03:08:34;6.28;;;2.10;;
16391;SDS011;8305;-33.882;151.134;2023-01-28T03:11:24;5.05;;;1.95;;
16391;SDS011;8305;-33.882;151.134;2023-01-28T03:14:12;6.90;;;2.00;;
16391;SDS011;8305;-33.882;151.134;2023-01-28T03:17:03;7.18;;;1.92;;
16391;SDS011;8305;-33.882;151.134;2023-01-28T03:19:55;7.90;;;2.30;;
16391;SDS011;8305;-33.882;151.134;2023-01-28T03:22:43;10.05;;;2.20;;
16391;SDS011;8305;-33.882;151.134;2023-01-28T03:25:34;4.68;;;1.63;;
16391;SDS011;8305;-33.882;151.134;2023-01-28T03:28:22;4.63;;;1.92;;
16391;SDS011;8305;-33.882;151.134;2023-01-28T03:31:09;7.18;;;1.90;;
16391;SDS011;8305;-33.882;151.134;2023-01-28T03:34:00;6.05;;;1.92;;
16391;SDS011;8305;-33.882;151.134;2023-01-28T03:36:48;7.95;;;1.60;;
16391;SDS011;8305;-33.882;151.134;2023-01-28T03:39:21;4.10;;;2.00;;
16391;SDS011;8305;-33.882;151.134;2023-01-28T03:41:59;6.32;;;2.10;;
16391;SDS011;8305;-33.882;151.134;2023-01-28T03:44:32;10.02;;;2.10;;
16391;SDS011;8305;-33.882;151.134;2023-01-28T03:47:22;6.03;;;1.80;;
16391;SDS011;8305;-33.882;151.134;2023-01-28T03:49:56;8.60;;;2.28;;
16391;SDS011;8305;-33.882;151.134;2023-01-28T03:52:28;13.13;;;2.45;;
16391;SDS011;8305;-33.882;151.134;2023-01-28T03:55:00;8.77;;;1.90;;
16391;SDS011;8305;-33.882;151.134;2023-01-28T03:57:39;5.53;;;1.85;;
16391;SDS011;8305;-33.882;151.134;2023-01-28T04:00:12;5.93;;;1.65;;
16391;SDS011;8305;-33.882;151.134;2023-01-28T04:02:45;4.32;;;2.10;;
16391;SDS011;8305;-33.882;151.134;2023-01-28T04:05:18;5.28;;;1.75;;
16391;SDS011;8305;-33.882;151.134;2023-01-28T04:07:49;9.05;;;1.80;;
16391;SDS011;8305;-33.882;151.134;2023-01-28T04:10:25;3.92;;;1.55;;
16391;SDS011;8305;-33.882;151.134;2023-01-28T04:12:56;6.38;;;1.85;;
16391;SDS011;8305;-33.882;151.134;2023-01-28T04:15:30;7.30;;;1.83;;
16391;SDS011;8305;-33.882;151.134;2023-01-28T04:18:01;5.82;;;1.85;;
16391;SDS011;8305;-33.882;151.134;2023-01-28T04:23:06;7.60;;;1.90;;
16391;SDS011;8305;-33.882;151.134;2023-01-28T04:25:37;6.53;;;1.77;;
16391;SDS011;8305;-33.882;151.134;2023-01-28T04:28:08;2.75;;;1.42;;
16391;SDS011;8305;-33.882;151.134;2023-01-28T04:30:39;6.65;;;1.60;;
16391;SDS011;8305;-33.882;151.134;2023-01-28T04:33:10;3.35;;;1.50;;
16391;SDS011;8305;-33.882;151.134;2023-01-28T04:35:43;4.95;;;1.52;;
16391;SDS011;8305;-33.882;151.134;2023-01-28T04:38:14;5.72;;;1.55;;
16391;SDS011;8305;-33.882;151.134;2023-01-28T04:40:48;4.88;;;1.40;;
16391;SDS011;8305;-33.882;151.134;2023-01-28T04:43:22;4.35;;;1.40;;
16391;SDS011;8305;-33.882;151.134;2023-01-28T04:45:53;4.80;;;1.50;;
16391;SDS011;8305;-33.882;151.134;2023-01-28T04:48:24;6.35;;;1.73;;
16391;SDS011;8305;-33.882;151.134;2023-01-28T04:50:58;4.85;;;1.40;;
16391;SDS011;8305;-33.882;151.134;2023-01-28T04:53:29;5.95;;;1.40;;
16391;SDS011;8305;-33.882;151.134;2023-01-28T04:56:00;5.32;;;1.35;;
16391;SDS011;8305;-33.882;151.134;2023-01-28T04:58:31;4.32;;;1.17;;
16391;SDS011;8305;-33.882;151.134;2023-01-28T05:01:02;4.75;;;1.65;;
16391;SDS011;8305;-33.882;151.134;2023-01-28T05:03:38;6.82;;;1.60;;
16391;SDS011;8305;-33.882;151.134;2023-01-28T05:06:11;5.30;;;1.30;;
16391;SDS011;8305;-33.882;151.134;2023-01-28T05:08:42;6.28;;;1.38;;
16391;SDS011;8305;-33.882;151.134;2023-01-28T05:11:13;7.80;;;1.40;;
16391;SDS011;8305;-33.882;151.134;2023-01-28T05:13:44;6.63;;;1.77;;
16391;SDS011;8305;-33.882;151.134;2023-01-28T05:16:15;5.63;;;1.48;;
16391;SDS011;8305;-33.882;151.134;2023-01-28T05:18:47;5.07;;;1.40;;
16391;SDS011;8305;-33.882;151.134;2023-01-28T05:21:19;6.20;;;1.20;;
16391;SDS011;8305;-33.882;151.134;2023-01-28T05:23:50;5.47;;;1.20;;
16391;SDS011;8305;-33.882;151.134;2023-01-28T05:26:21;3.72;;;1.10;;
16391;SDS011;8305;-33.882;151.134;2023-01-28T05:28:52;8.32;;;1.50;;
16391;SDS011;8305;-33.882;151.134;2023-01-28T05:31:23;5.95;;;1.42;;
16391;SDS011;8305;-33.882;151.134;2023-01-28T05:33:54;4.68;;;1.40;;
16391;SDS011;8305;-33.882;151.134;2023-01-28T05:36:27;5.85;;;1.45;;
16391;SDS011;8305;-33.882;151.134;2023-01-28T05:38:58;5.80;;;1.27;;
16391;SDS011;8305;-33.882;151.134;2023-01-28T05:41:29;5.25;;;1.73;;
16391;SDS011;8305;-33.882;151.134;2023-01-28T05:44:00;8.00;;;1.50;;
16391;SDS011;8305;-33.882;151.134;2023-01-28T05:46:31;6.80;;;1.65;;
16391;SDS011;8305;-33.882;151.134;2023-01-28T05:49:02;4.45;;;1.30;;
16391;SDS011;8305;-33.882;151.134;2023-01-28T05:51:39;4.45;;;1.33;;
16391;SDS011;8305;-33.882;151.134;2023-01-28T05:54:10;5.07;;;1.50;;
16391;SDS011;8305;-33.882;151.134;2023-01-28T05:56:42;9.98;;;1.60;;
16391;SDS011;8305;-33.882;151.134;2023-01-28T05:59:13;7.63;;;1.73;;
16391;SDS011;8305;-33.882;151.134;2023-01-28T06:01:44;4.82;;;1.33;;
16391;SDS011;8305;-33.882;151.134;2023-01-28T06:04:15;4.53;;;1.48;;
16391;SDS011;8305;-33.882;151.134;2023-01-28T06:06:48;6.40;;;1.67;;
16391;SDS011;8305;-33.882;151.134;2023-01-28T06:09:19;6.65;;;1.55;;
16391;SDS011;8305;-33.882;151.134;2023-01-28T06:11:50;6.53;;;1.60;;
16391;SDS011;8305;-33.882;151.134;2023-01-28T06:14:21;6.53;;;1.30;;
16391;SDS011;8305;-33.882;151.134;2023-01-28T06:16:52;7.00;;;1.70;;
16391;SDS011;8305;-33.882;151.134;2023-01-28T06:19:22;5.82;;;1.60;;
16391;SDS011;8305;-33.882;151.134;2023-01-28T06:21:55;4.70;;;1.45;;
16391;SDS011;8305;-33.882;151.134;2023-01-28T06:24:26;8.30;;;2.28;;
16391;SDS011;8305;-33.882;151.134;2023-01-28T06:26:57;6.45;;;1.80;;
16391;SDS011;8305;-33.882;151.134;2023-01-28T06:29:28;8.48;;;1.60;;
16391;SDS011;8305;-33.882;151.134;2023-01-28T06:31:59;6.93;;;1.55;;
16391;SDS011;8305;-33.882;151.134;2023-01-28T06:34:30;6.60;;;1.70;;
16391;SDS011;8305;-33.882;151.134;2023-01-28T06:37:03;10.10;;;2.13;;
16391;SDS011;8305;-33.882;151.134;2023-01-28T06:39:34;6.47;;;2.17;;
16391;SDS011;8305;-33.882;151.134;2023-01-28T06:42:05;9.70;;;1.95;;
16391;SDS011;8305;-33.882;151.134;2023-01-28T06:44:36;8.45;;;1.90;;
16391;SDS011;8305;-33.882;151.134;2023-01-28T06:47:07;8.43;;;1.70;;
16391;SDS011;8305;-33.882;151.134;2023-01-28T06:49:40;8.57;;;2.15;;
16391;SDS011;8305;-33.882;151.134;2023-01-28T06:52:13;6.65;;;1.80;;
16391;SDS011;8305;-33.882;151.134;2023-01-28T06:54:44;9.57;;;2.13;;
16391;SDS011;8305;-33.882;151.134;2023-01-28T06:57:15;8.93;;;1.83;;
16391;SDS011;8305;-33.882;151.134;2023-01-28T06:59:46;5.45;;;1.90;;
16391;SDS011;8305;-33.882;151.134;2023-01-28T07:02:17;8.80;;;1.90;;
16391;SDS011;8305;-33.882;151.134;2023-01-28T07:04:48;10.05;;;2.40;;
16391;SDS011;8305;-33.882;151.134;2023-01-28T07:07:21;12.63;;;2.20;;
16391;SDS011;8305;-33.882;151.134;2023-01-28T07:09:52;7.80;;;2.00;;
16391;SDS011;8305;-33.882;151.134;2023-01-28T07:12:23;10.88;;;2.28;;
16391;SDS011;8305;-33.882;151.134;2023-01-28T07:14:54;10.65;;;2.35;;
16391;SDS011;8305;-33.882;151.134;2023-01-28T07:17:25;11.02;;;2.35;;
16391;SDS011;8305;-33.882;151.134;2023-01-28T07:19:56;9.90;;;2.13;;
16391;SDS011;8305;-33.882;151.134;2023-01-28T07:22:29;10.23;;;2.45;;
16391;SDS011;8305;-33.882;151.134;2023-01-28T07:25:00;9.38;;;2.38;;
16391;SDS011;8305;-33.882;151.134;2023-01-28T07:27:31;6.38;;;1.92;;
16391;SDS011;8305;-33.882;151.134;2023-01-28T07:30:02;8.18;;;2.40;;
16391;SDS011;8305;-33.882;151.134;2023-01-28T07:32:33;10.73;;;2.08;;
16391;SDS011;8305;-33.882;151.134;2023-01-28T07:35:04;8.27;;;2.17;;
16391;SDS011;8305;-33.882;151.134;2023-01-28T07:37:38;11.00;;;2.58;;
16391;SDS011;8305;-33.882;151.134;2023-01-28T07:40:09;8.05;;;2.03;;
16391;SDS011;8305;-33.882;151.134;2023-01-28T07:42:40;8.57;;;2.03;;
16391;SDS011;8305;-33.882;151.134;2023-01-28T07:45:12;9.02;;;1.83;;
16391;SDS011;8305;-33.882;151.134;2023-01-28T07:47:43;10.20;;;2.50;;
16391;SDS011;8305;-33.882;151.134;2023-01-28T07:50:21;9.10;;;1.95;;
16391;SDS011;8305;-33.882;151.134;2023-01-28T07:52:53;10.45;;;2.10;;
16391;SDS011;8305;-33.882;151.134;2023-01-28T07:55:24;7.95;;;2.03;;
16391;SDS011;8305;-33.882;151.134;2023-01-28T07:57:56;10.73;;;2.30;;
16391;SDS011;8305;-33.882;151.134;2023-01-28T08:00:28;10.07;;;2.33;;
16391;SDS011;8305;-33.882;151.134;2023-01-28T08:03:00;6.85;;;2.15;;
16391;SDS011;8305;-33.882;151.134;2023-01-28T08:05:36;7.90;;;2.30;;
16391;SDS011;8305;-33.882;151.134;2023-01-28T08:08:11;8.63;;;2.25;;
16391;SDS011;8305;-33.882;151.134;2023-01-28T08:10:42;11.30;;;2.50;;
16391;SDS011;8305;-33.882;151.134;2023-01-28T08:13:13;9.48;;;2.22;;
16391;SDS011;8305;-33.882;151.134;2023-01-28T08:15:45;18.05;;;2.90;;
16391;SDS011;8305;-33.882;151.134;2023-01-28T08:18:16;11.25;;;2.47;;
16391;SDS011;8305;-33.882;151.134;2023-01-28T08:20:47;14.65;;;2.38;;
16391;SDS011;8305;-33.882;151.134;2023-01-28T08:23:24;10.43;;;2.40;;
16391;SDS011;8305;-33.882;151.134;2023-01-28T08:25:57;13.52;;;2.65;;
16391;SDS011;8305;-33.882;151.134;2023-01-28T08:28:28;11.77;;;2.45;;
16391;SDS011;8305;-33.882;151.134;2023-01-28T08:30:59;12.15;;;2.60;;
16391;SDS011;8305;-33.882;151.134;2023-01-28T08:33:30;10.10;;;2.40;;
16391;SDS011;8305;-33.882;151.134;2023-01-28T08:36:02;12.65;;;2.65;;
16391;SDS011;8305;-33.882;151.134;2023-01-28T08:38:35;6.80;;;2.08;;
16391;SDS011;8305;-33.882;151.134;2023-01-28T08:41:06;12.18;;;4.03;;
16391;SDS011;8305;-33.882;151.134;2023-01-28T08:43:37;10.20;;;2.72;;
16391;SDS011;8305;-33.882;151.134;2023-01-28T08:46:08;11.80;;;3.53;;
16391;SDS011;8305;-33.882;151.134;2023-01-28T08:48:39;11.07;;;2.63;;
16391;SDS011;8305;-33.882;151.134;2023-01-28T08:51:10;15.02;;;2.88;;
16391;SDS011;8305;-33.882;151.134;2023-01-28T08:53:43;13.00;;;2.72;;
16391;SDS011;8305;-33.882;151.134;2023-01-28T08:56:14;12.10;;;2.70;;
16391;SDS011;8305;-33.882;151.134;2023-01-28T08:58:45;11.23;;;2.90;;
16391;SDS011;8305;-33.882;151.134;2023-01-28T09:01:16;17.58;;;3.00;;
16391;SDS011;8305;-33.882;151.134;2023-01-28T09:03:47;14.50;;;2.90;;
16391;SDS011;8305;-33.882;151.134;2023-01-28T09:06:18;13.60;;;2.92;;
16391;SDS011;8305;-33.882;151.134;2023-01-28T09:08:51;13.82;;;2.83;;
16391;SDS011;8305;-33.882;151.134;2023-01-28T09:11:25;14.93;;;3.38;;
16391;SDS011;8305;-33.882;151.134;2023-01-28T09:13:56;9.23;;;2.53;;
16391;SDS011;8305;-33.882;151.134;2023-01-28T09:16:27;11.88;;;2.78;;
16391;SDS011;8305;-33.882;151.134;2023-01-28T09:19:01;13.15;;;2.65;;
16391;SDS011;8305;-33.882;151.134;2023-01-28T09:21:32;11.10;;;2.30;;
16391;SDS011;8305;-33.882;151.134;2023-01-28T09:24:05;10.18;;;2.55;;
16391;SDS011;8305;-33.882;151.134;2023-01-28T09:26:39;16.50;;;2.97;;
16391;SDS011;8305;-33.882;151.134;2023-01-28T09:29:10;11.35;;;2.53;;
16391;SDS011;8305;-33.882;151.134;2023-01-28T09:31:41;15.70;;;3.20;;
16391;SDS011;8305;-33.882;151.134;2023-01-28T09:34:12;11.77;;;2.95;;
16391;SDS011;8305;-33.882;151.134;2023-01-28T09:36:43;16.38;;;2.95;;
16391;SDS011;8305;-33.882;151.134;2023-01-28T09:39:16;12.27;;;2.70;;
16391;SDS011;8305;-33.882;151.134;2023-01-28T09:41:48;15.38;;;3.10;;
16391;SDS011;8305;-33.882;151.134;2023-01-28T09:44:27;11.88;;;2.60;;
16391;SDS011;8305;-33.882;151.134;2023-01-28T09:47:18;12.98;;;3.03;;
16391;SDS011;8305;-33.882;151.134;2023-01-28T09:49:54;12.45;;;2.72;;
16391;SDS011;8305;-33.882;151.134;2023-01-28T09:52:29;19.23;;;3.10;;
16391;SDS011;8305;-33.882;151.134;2023-01-28T09:55:11;11.48;;;2.53;;
16391;SDS011;8305;-33.882;151.134;2023-01-28T09:57:48;14.20;;;2.72;;
16391;SDS011;8305;-33.882;151.134;2023-01-28T10:00:22;14.20;;;2.63;;
16391;SDS011;8305;-33.882;151.134;2023-01-28T10:05:58;12.10;;;3.00;;
16391;SDS011;8305;-33.882;151.134;2023-01-28T10:08:55;13.00;;;2.67;;
16391;SDS011;8305;-33.882;151.134;2023-01-28T10:11:53;12.68;;;3.30;;
16391;SDS011;8305;-33.882;151.134;2023-01-28T10:14:49;10.75;;;2.75;;
16391;SDS011;8305;-33.882;151.134;2023-01-28T10:17:33;15.98;;;3.28;;
16391;SDS011;8305;-33.882;151.134;2023-01-28T10:20:14;13.32;;;2.97;;
16391;SDS011;8305;-33.882;151.134;2023-01-28T10:22:52;10.57;;;2.83;;
16391;SDS011;8305;-33.882;151.134;2023-01-28T10:25:27;14.43;;;3.22;;
16391;SDS011;8305;-33.882;151.134;2023-01-28T10:28:04;14.98;;;3.35;;
16391;SDS011;8305;-33.882;151.134;2023-01-28T10:30:42;15.05;;;2.90;;
16391;SDS011;8305;-33.882;151.134;2023-01-28T10:33:16;15.40;;;3.15;;
16391;SDS011;8305;-33.882;151.134;2023-01-28T10:35:51;21.05;;;3.50;;
16391;SDS011;8305;-33.882;151.134;2023-01-28T10:38:24;15.25;;;2.97;;
16391;SDS011;8305;-33.882;151.134;2023-01-28T10:41:00;17.67;;;3.47;;
16391;SDS011;8305;-33.882;151.134;2023-01-28T10:43:34;16.52;;;2.90;;
16391;SDS011;8305;-33.882;151.134;2023-01-28T10:46:09;11.25;;;3.05;;
16391;SDS011;8305;-33.882;151.134;2023-01-28T10:48:44;13.02;;;2.92;;
16391;SDS011;8305;-33.882;151.134;2023-01-28T10:51:16;12.10;;;3.00;;
16391;SDS011;8305;-33.882;151.134;2023-01-28T10:53:57;16.58;;;2.78;;
16391;SDS011;8305;-33.882;151.134;2023-01-28T10:56:29;14.68;;;3.00;;
16391;SDS011;8305;-33.882;151.134;2023-01-28T10:59:03;18.00;;;3.30;;
16391;SDS011;8305;-33.882;151.134;2023-01-28T11:01:47;14.80;;;2.97;;
16391;SDS011;8305;-33.882;151.134;2023-01-28T11:04:22;14.82;;;3.25;;
16391;SDS011;8305;-33.882;151.134;2023-01-28T11:06:56;12.27;;;3.97;;
16391;SDS011;8305;-33.882;151.134;2023-01-28T11:09:29;18.85;;;3.70;;
16391;SDS011;8305;-33.882;151.134;2023-01-28T11:12:10;13.13;;;3.22;;
16391;SDS011;8305;-33.882;151.134;2023-01-28T11:14:48;13.63;;;2.95;;
16391;SDS011;8305;-33.882;151.134;2023-01-28T11:17:19;13.38;;;3.38;;
16391;SDS011;8305;-33.882;151.134;2023-01-28T11:19:52;11.32;;;2.88;;
16391;SDS011;8305;-33.882;151.134;2023-01-28T11:22:26;15.60;;;3.42;;
16391;SDS011;8305;-33.882;151.134;2023-01-28T11:25:02;11.90;;;3.25;;
16391;SDS011;8305;-33.882;151.134;2023-01-28T11:27:45;11.00;;;3.05;;
16391;SDS011;8305;-33.882;151.134;2023-01-28T11:30:22;16.17;;;3.05;;
16391;SDS011;8305;-33.882;151.134;2023-01-28T11:32:57;19.13;;;3.20;;
16391;SDS011;8305;-33.882;151.134;2023-01-28T11:35:34;12.63;;;3.17;;
16391;SDS011;8305;-33.882;151.134;2023-01-28T11:38:10;14.80;;;3.13;;
16391;SDS011;8305;-33.882;151.134;2023-01-28T11:40:49;13.27;;;2.92;;
16391;SDS011;8305;-33.882;151.134;2023-01-28T11:43:21;15.02;;;3.30;;
16391;SDS011;8305;-33.882;151.134;2023-01-28T11:45:56;14.45;;;3.25;;
16391;SDS011;8305;-33.882;151.134;2023-01-28T11:48:41;18.63;;;3.65;;
16391;SDS011;8305;-33.882;151.134;2023-01-28T11:51:24;14.50;;;3.28;;
16391;SDS011;8305;-33.882;151.134;2023-01-28T11:54:13;16.42;;;3.47;;
16391;SDS011;8305;-33.882;151.134;2023-01-28T11:57:06;17.60;;;3.42;;
16391;SDS011;8305;-33.882;151.134;2023-01-28T11:59:49;11.48;;;3.47;;
16391;SDS011;8305;-33.882;151.134;2023-01-28T12:02:48;14.65;;;3.55;;
16391;SDS011;8305;-33.882;151.134;2023-01-28T12:05:29;14.27;;;3.10;;
16391;SDS011;8305;-33.882;151.134;2023-01-28T12:08:19;16.98;;;3.35;;
16391;SDS011;8305;-33.882;151.134;2023-01-28T12:10:56;16.90;;;3.35;;
16391;SDS011;8305;-33.882;151.134;2023-01-28T12:13:44;16.17;;;3.15;;
16391;SDS011;8305;-33.882;151.134;2023-01-28T12:16:34;16.95;;;3.33;;
16391;SDS011;8305;-33.882;151.134;2023-01-28T12:19:23;17.60;;;3.58;;
16391;SDS011;8305;-33.882;151.134;2023-01-28T12:22:14;15.65;;;3.17;;
16391;SDS011;8305;-33.882;151.134;2023-01-28T12:24:57;14.02;;;3.30;;
16391;SDS011;8305;-33.882;151.134;2023-01-28T12:27:40;10.55;;;3.30;;
16391;SDS011;8305;-33.882;151.134;2023-01-28T12:30:22;12.90;;;3.00;;
16391;SDS011;8305;-33.882;151.134;2023-01-28T12:33:11;17.23;;;3.70;;
16391;SDS011;8305;-33.882;151.134;2023-01-28T12:35:58;20.75;;;3.33;;
16391;SDS011;8305;-33.882;151.134;2023-01-28T12:38:35;14.30;;;3.30;;
16391;SDS011;8305;-33.882;151.134;2023-01-28T12:41:14;17.23;;;3.65;;
16391;SDS011;8305;-33.882;151.134;2023-01-28T12:43:50;14.23;;;3.10;;
16391;SDS011;8305;-33.882;151.134;2023-01-28T12:46:30;17.70;;;3.67;;
16391;SDS011;8305;-33.882;151.134;2023-01-28T12:49:09;16.60;;;3.33;;
16391;SDS011;8305;-33.882;151.134;2023-01-28T12:51:56;15.23;;;3.28;;
16391;SDS011;8305;-33.882;151.134;2023-01-28T12:54:32;13.50;;;4.47;;
16391;SDS011;8305;-33.882;151.134;2023-01-28T12:57:10;16.17;;;3.47;;
16391;SDS011;8305;-33.882;151.134;2023-01-28T12:59:47;17.15;;;3.30;;
16391;SDS011;8305;-33.882;151.134;2023-01-28T13:02:22;14.20;;;3.40;;
16391;SDS011;8305;-33.882;151.134;2023-01-28T13:04:56;17.77;;;3.70;;
16391;SDS011;8305;-33.882;151.134;2023-01-28T13:07:36;13.13;;;3.10;;
16391;SDS011;8305;-33.882;151.134;2023-01-28T13:10:18;16.70;;;3.60;;
16391;SDS011;8305;-33.882;151.134;2023-01-28T13:12:53;20.42;;;3.25;;
16391;SDS011;8305;-33.882;151.134;2023-01-28T13:15:24;15.15;;;3.42;;
16391;SDS011;8305;-33.882;151.134;2023-01-28T13:17:56;12.32;;;3.00;;
16391;SDS011;8305;-33.882;151.134;2023-01-28T13:20:35;13.90;;;3.42;;
16391;SDS011;8305;-33.882;151.134;2023-01-28T13:23:22;21.95;;;5.22;;
16391;SDS011;8305;-33.882;151.134;2023-01-28T13:25:55;16.55;;;5.38;;
16391;SDS011;8305;-33.882;151.134;2023-01-28T13:28:36;17.38;;;5.30;;
16391;SDS011;8305;-33.882;151.134;2023-01-28T13:31:09;20.88;;;6.25;;
16391;SDS011;8305;-33.882;151.134;2023-01-28T13:33:44;19.15;;;6.15;;
16391;SDS011;8305;-33.882;151.134;2023-01-28T13:36:21;22.02;;;7.07;;
16391;SDS011;8305;-33.882;151.134;2023-01-28T13:39:01;20.30;;;6.55;;
16391;SDS011;8305;-33.882;151.134;2023-01-28T13:41:38;18.17;;;6.03;;
16391;SDS011;8305;-33.882;151.134;2023-01-28T13:44:25;16.50;;;5.57;;
16391;SDS011;8305;-33.882;151.134;2023-01-28T13:46:57;16.20;;;5.90;;
16391;SDS011;8305;-33.882;151.134;2023-01-28T13:49:41;12.55;;;5.38;;
16391;SDS011;8305;-33.882;151.134;2023-01-28T13:52:15;20.20;;;6.05;;
16391;SDS011;8305;-33.882;151.134;2023-01-28T13:54:53;16.73;;;6.05;;
16391;SDS011;8305;-33.882;151.134;2023-01-28T14:01:02;15.43;;;5.60;;
16391;SDS011;8305;-33.882;151.134;2023-01-28T14:04:03;16.02;;;5.18;;
16391;SDS011;8305;-33.882;151.134;2023-01-28T14:13:07;14.60;;;3.95;;
16391;SDS011;8305;-33.882;151.134;2023-01-28T14:18:58;12.45;;;3.70;;
16391;SDS011;8305;-33.882;151.134;2023-01-28T14:21:31;18.02;;;4.45;;
16391;SDS011;8305;-33.882;151.134;2023-01-28T14:24:03;14.90;;;4.05;;
16391;SDS011;8305;-33.882;151.134;2023-01-28T14:26:42;18.23;;;4.32;;
16391;SDS011;8305;-33.882;151.134;2023-01-28T14:29:26;19.40;;;4.05;;
16391;SDS011;8305;-33.882;151.134;2023-01-28T14:32:10;13.15;;;3.90;;
16391;SDS011;8305;-33.882;151.134;2023-01-28T14:34:43;17.30;;;4.32;;
16391;SDS011;8305;-33.882;151.134;2023-01-28T14:37:16;18.85;;;5.45;;
16391;SDS011;8305;-33.882;151.134;2023-01-28T14:39:50;17.77;;;4.93;;
16391;SDS011;8305;-33.882;151.134;2023-01-28T14:42:24;14.70;;;5.28;;
16391;SDS011;8305;-33.882;151.134;2023-01-28T14:45:04;17.75;;;5.68;;
16391;SDS011;8305;-33.882;151.134;2023-01-28T14:47:53;11.63;;;5.13;;
16391;SDS011;8305;-33.882;151.134;2023-01-28T14:50:44;19.13;;;5.90;;
16391;SDS011;8305;-33.882;151.134;2023-01-28T14:56:41;15.30;;;6.10;;
16391;SDS011;8305;-33.882;151.134;2023-01-28T14:59:22;17.08;;;6.68;;
16391;SDS011;8305;-33.882;151.134;2023-01-28T15:01:59;16.45;;;6.43;;
16391;SDS011;8305;-33.882;151.134;2023-01-28T15:04:31;19.27;;;6.60;;
16391;SDS011;8305;-33.882;151.134;2023-01-28T15:07:14;19.17;;;6.97;;
16391;SDS011;8305;-33.882;151.134;2023-01-28T15:09:46;18.70;;;6.90;;
16391;SDS011;8305;-33.882;151.134;2023-01-28T15:12:28;16.73;;;6.70;;
16391;SDS011;8305;-33.882;151.134;2023-01-28T15:15:07;17.33;;;7.03;;
16391;SDS011;8305;-33.882;151.134;2023-01-28T15:17:44;14.20;;;7.18;;
16391;SDS011;8305;-33.882;151.134;2023-01-28T15:20:17;18.35;;;7.65;;
16391;SDS011;8305;-33.882;151.134;2023-01-28T15:22:50;16.85;;;7.55;;
16391;SDS011;8305;-33.882;151.134;2023-01-28T15:25:21;14.80;;;7.50;;